Time;durP1;ratioP1;P1;durP2;ratioP2;P2;SDS_P1;SDS_P2;PMS_P1;PMS_P2;Temp;Humidity;BMP_temperature;BMP_pressure;BME280_temperature;BME280_humidity;BME280_pressure;Samples;Min_cycle;Max_cycle;Signal;HPM_P1;HPM_P2
2023/12/19 00:02:13;;;;;;;15.63;9.80;;;;;;;6.81;100.00;101583.13;5024294;28;20061;-82
2023/12/19 00:04:40;;;;;;;14.82;9.90;;;;;;;6.83;100.00;101584.06;5009016;28;20050;-84
2023/12/19 00:07:10;;;;;;;16.38;9.73;;;;;;;6.86;100.00;101552.00;5021447;28;20050;-82
2023/12/19 00:09:36;;;;;;;13.48;9.30;;;;;;;6.84;100.00;101554.53;5028095;28;20121;-82
2023/12/19 00:12:04;;;;;;;14.27;8.85;;;;;;;6.91;100.00;101551.25;5016353;28;20115;-84
2023/12/19 00:14:35;;;;;;;16.63;9.30;;;;;;;6.94;100.00;101587.72;5025094;28;20037;-84
2023/12/19 00:17:14;;;;;;;14.90;9.93;;;;;;;6.91;100.00;101608.50;5031080;28;20099;-84
2023/12/19 00:19:40;;;;;;;15.82;10.10;;;;;;;6.97;100.00;101619.91;5004098;28;20052;-83
2023/12/19 00:22:17;;;;;;;14.55;8.90;;;;;;;6.99;100.00;101607.78;5034271;28;20527;-85
2023/12/19 00:24:44;;;;;;;13.25;8.77;;;;;;;7.00;100.00;101604.34;5017767;28;20065;-84
2023/12/19 00:27:11;;;;;;;14.25;9.82;;;;;;;7.01;100.00;101608.69;5032059;28;20084;-84
2023/12/19 00:29:37;;;;;;;17.05;10.68;;;;;;;7.01;100.00;101606.97;5014470;28;20065;-83
2023/12/19 00:32:10;;;;;;;13.38;9.13;;;;;;;7.08;100.00;101597.59;5030524;28;20053;-83
2023/12/19 00:34:36;;;;;;;13.13;9.52;;;;;;;7.05;100.00;101611.41;5033433;28;20065;-83
2023/12/19 00:37:04;;;;;;;13.05;8.45;;;;;;;7.05;100.00;101607.91;5013554;28;20045;-82
2023/12/19 00:39:30;;;;;;;15.82;9.60;;;;;;;7.00;100.00;101601.72;5004063;28;20170;-83
2023/12/19 00:41:57;;;;;;;13.00;8.43;;;;;;;7.05;100.00;101615.72;5013439;28;20506;-83
2023/12/19 00:44:23;;;;;;;14.27;9.05;;;;;;;7.02;100.00;101594.84;5028321;28;20036;-84
2023/12/19 00:46:54;;;;;;;12.25;8.85;;;;;;;6.98;100.00;101606.91;5018725;28;20138;-83
2023/12/19 00:49:20;;;;;;;14.27;8.27;;;;;;;6.99;100.00;101610.38;5012073;28;20042;-84
2023/12/19 00:51:47;;;;;;;14.15;9.57;;;;;;;7.05;100.00;101616.63;5012238;28;20839;-83
2023/12/19 00:54:13;;;;;;;13.82;9.73;;;;;;;7.06;100.00;101615.75;5025108;28;20096;-84
2023/12/19 00:56:43;;;;;;;15.55;8.55;;;;;;;7.04;100.00;101600.94;5008060;28;20107;-84
2023/12/19 00:59:12;;;;;;;15.68;9.55;;;;;;;7.07;100.00;101603.63;5002927;28;20061;-82
2023/12/19 01:01:38;;;;;;;16.83;10.30;;;;;;;7.11;100.00;101611.53;4988113;28;20555;-84
2023/12/19 01:04:06;;;;;;;15.07;8.85;;;;;;;7.10;100.00;101627.13;5007497;28;20045;-84
2023/12/19 01:06:32;;;;;;;14.15;9.73;;;;;;;7.14;100.00;101612.44;5019686;28;20096;-83
2023/12/19 01:08:59;;;;;;;14.77;10.27;;;;;;;7.11;100.00;101608.03;4991591;28;20046;-83
2023/12/19 01:11:26;;;;;;;13.55;8.95;;;;;;;7.10;100.00;101611.50;4980366;28;20049;-83
2023/12/19 01:13:52;;;;;;;15.30;9.32;;;;;;;7.11;100.00;101610.66;5008759;28;20683;-82
2023/12/19 01:16:19;;;;;;;13.20;9.02;;;;;;;7.10;100.00;101614.09;5002787;28;20561;-84
2023/12/19 01:18:45;;;;;;;10.82;8.27;;;;;;;7.04;100.00;101608.75;5005739;28;20302;-83
2023/12/19 01:21:12;;;;;;;14.98;9.07;;;;;;;6.99;100.00;101610.38;4993900;28;20073;-83
2023/12/19 01:23:39;;;;;;;15.80;10.10;;;;;;;7.01;100.00;101619.97;5009292;28;20079;-82
2023/12/19 01:26:05;;;;;;;12.30;9.75;;;;;;;6.95;100.00;101612.94;5010746;28;20053;-82
2023/12/19 01:28:32;;;;;;;10.77;8.45;;;;;;;6.82;100.00;101592.69;5007342;28;20053;-82
2023/12/19 01:30:58;;;;;;;12.88;8.95;;;;;;;6.77;100.00;101583.91;5010619;28;20145;-83
2023/12/19 01:33:26;;;;;;;13.27;9.38;;;;;;;6.78;100.00;101588.28;4993261;28;20045;-83
2023/12/19 01:35:56;;;;;;;14.93;10.15;;;;;;;6.73;100.00;101598.56;5009834;28;20049;-84
2023/12/19 01:38:22;;;;;;;13.25;9.05;;;;;;;6.68;100.00;101592.38;4990173;28;20045;-82
2023/12/19 01:40:49;;;;;;;15.50;9.95;;;;;;;6.67;100.00;101587.16;4987448;28;20049;-84
2023/12/19 01:43:20;;;;;;;12.30;9.93;;;;;;;6.61;100.00;101578.38;5011014;28;20095;-83
2023/12/19 01:45:52;;;;;;;13.57;9.57;;;;;;;6.69;100.00;101577.63;5008150;28;20530;-84
2023/12/19 01:48:19;;;;;;;13.65;8.52;;;;;;;6.68;100.00;101571.56;4989345;28;20054;-82
2023/12/19 01:50:47;;;;;;;12.27;8.85;;;;;;;6.67;100.00;101572.41;4988878;28;20145;-85
2023/12/19 01:53:14;;;;;;;13.88;8.63;;;;;;;6.64;100.00;101574.09;5001381;28;20046;-83
2023/12/19 01:55:41;;;;;;;13.85;9.20;;;;;;;6.65;100.00;101573.22;4984423;28;20105;-83
2023/12/19 01:58:10;;;;;;;13.57;8.73;;;;;;;6.67;100.00;101556.78;5003154;28;20581;-82
2023/12/19 02:00:38;;;;;;;12.50;9.15;;;;;;;6.70;100.00;101566.38;5026540;28;20139;-84
2023/12/19 02:03:06;;;;;;;13.18;8.80;;;;;;;6.72;100.00;101575.13;5001341;28;20041;-82
2023/12/19 02:05:38;;;;;;;13.88;8.93;;;;;;;6.69;100.00;101578.53;5025645;28;20108;-83
2023/12/19 02:08:06;;;;;;;15.07;8.07;;;;;;;6.66;100.00;101570.63;5008525;28;20078;-84
2023/12/19 02:10:32;;;;;;;8.98;7.75;;;;;;;6.68;100.00;101561.16;5024742;28;20045;-84
2023/12/19 02:13:00;;;;;;;9.60;6.78;;;;;;;6.73;100.00;101551.72;5007823;28;20060;-83
2023/12/19 02:15:27;;;;;;;9.27;6.68;;;;;;;6.73;100.00;101549.13;5003112;28;20041;-83
2023/12/19 02:17:54;;;;;;;9.60;6.97;;;;;;;6.73;100.00;101543.94;5009131;28;20045;-82
2023/12/19 02:20:20;;;;;;;10.57;6.93;;;;;;;6.77;100.00;101539.66;5009224;28;20049;-82
2023/12/19 02:22:53;;;;;;;8.20;6.55;;;;;;;6.72;100.00;101536.97;4992165;28;20055;-83
2023/12/19 02:25:21;;;;;;;10.53;6.50;;;;;;;6.75;100.00;101530.94;5008804;28;20048;-83
2023/12/19 02:27:47;;;;;;;7.90;5.75;;;;;;;6.79;100.00;101538.84;4989814;28;20057;-83
2023/12/19 02:30:14;;;;;;;7.95;5.88;;;;;;;6.81;100.00;101541.50;5006909;28;20430;-83
2023/12/19 02:32:42;;;;;;;7.93;6.15;;;;;;;6.84;100.00;101532.88;5008173;28;20089;-84
2023/12/19 02:35:09;;;;;;;5.82;5.20;;;;;;;6.82;100.00;101532.84;4992050;28;20076;-82
2023/12/19 02:37:35;;;;;;;6.78;5.43;;;;;;;6.83;100.00;101521.59;5008807;28;20102;-82
2023/12/19 02:40:02;;;;;;;7.47;6.55;;;;;;;6.87;100.00;101514.69;5008802;28;20831;-84
2023/12/19 02:42:29;;;;;;;7.78;5.13;;;;;;;6.89;100.00;101507.81;5005040;28;20514;-84
2023/12/19 02:44:55;;;;;;;8.55;6.15;;;;;;;6.89;100.00;101503.47;5007678;28;20041;-83
2023/12/19 02:47:22;;;;;;;7.43;5.55;;;;;;;6.86;100.00;101511.22;4987862;28;20161;-83
2023/12/19 02:49:48;;;;;;;8.15;5.95;;;;;;;6.88;100.00;101514.75;5006092;28;20045;-83
2023/12/19 02:52:15;;;;;;;8.57;5.72;;;;;;;6.92;100.00;101513.06;5008664;28;20132;-83
2023/12/19 02:54:41;;;;;;;6.10;5.50;;;;;;;6.91;100.00;101517.41;5006674;28;20120;-83
2023/12/19 02:57:08;;;;;;;7.47;5.32;;;;;;;6.92;100.00;101511.34;5009342;28;20049;-83
2023/12/19 02:59:35;;;;;;;7.13;5.97;;;;;;;6.91;100.00;101517.41;5004387;28;20060;-83
2023/12/19 03:02:01;;;;;;;6.20;5.57;;;;;;;6.95;100.00;101501.00;4995770;28;20065;-83
2023/12/19 03:04:29;;;;;;;6.88;4.68;;;;;;;6.96;100.00;101483.63;4993772;28;20676;-83
2023/12/19 03:06:56;;;;;;;4.97;4.45;;;;;;;6.95;100.00;101472.38;5007087;28;20045;-83
2023/12/19 03:09:23;;;;;;;6.68;5.65;;;;;;;6.96;100.00;101470.63;5005007;28;20104;-83
2023/12/19 03:12:05;;;;;;;6.25;5.07;;;;;;;6.93;100.00;101467.97;5003604;28;20077;-82
2023/12/19 03:14:36;;;;;;;6.78;5.30;;;;;;;6.93;100.00;101465.38;5009667;28;20069;-84
2023/12/19 03:17:04;;;;;;;7.20;5.80;;;;;;;6.89;100.00;101472.22;5004691;28;20048;-83
2023/12/19 03:19:31;;;;;;;6.28;4.80;;;;;;;6.92;100.00;101464.50;4991411;28;20394;-83
2023/12/19 03:21:58;;;;;;;6.25;5.28;;;;;;;6.92;100.00;101464.50;4986942;28;20113;-83
2023/12/19 03:24:25;;;;;;;5.13;4.60;;;;;;;6.97;100.00;101458.50;4990539;28;20069;-83
2023/12/19 03:26:51;;;;;;;6.70;4.97;;;;;;;6.94;100.00;101461.94;5005741;28;20060;-81
2023/12/19 03:29:18;;;;;;;5.95;4.93;;;;;;;6.97;100.00;101466.31;5024484;28;20057;-81
2023/12/19 03:31:44;;;;;;;6.20;5.60;;;;;;;6.94;100.00;101464.53;4991844;28;20054;-83
2023/12/19 03:34:11;;;;;;;5.25;4.75;;;;;;;6.95;100.00;101461.94;5005270;28;20063;-82
2023/12/19 03:36:38;;;;;;;7.13;5.63;;;;;;;6.96;100.00;101465.41;5002156;28;20913;-82
2023/12/19 03:39:05;;;;;;;7.38;4.90;;;;;;;6.93;100.00;101461.03;4990134;28;20060;-82
2023/12/19 03:41:32;;;;;;;6.13;4.88;;;;;;;6.94;100.00;101465.41;5007520;28;20045;-82
2023/12/19 03:44:00;;;;;;;5.97;4.47;;;;;;;6.94;100.00;101452.38;5000574;28;20053;-84
2023/12/19 03:46:27;;;;;;;5.43;4.93;;;;;;;6.91;100.00;101438.41;5010915;28;20040;-82
2023/12/19 03:48:53;;;;;;;4.68;4.25;;;;;;;6.92;100.00;101420.25;5012370;28;20117;-82
2023/12/19 03:51:20;;;;;;;5.70;4.80;;;;;;;6.98;100.00;101426.44;5008649;28;20621;-83
2023/12/19 03:53:47;;;;;;;5.50;4.65;;;;;;;7.01;100.00;101422.13;5010261;28;20041;-84
2023/12/19 03:56:13;;;;;;;6.28;5.68;;;;;;;6.96;100.00;101410.75;5010234;28;20125;-83
2023/12/19 03:58:40;;;;;;;6.47;5.63;;;;;;;6.99;100.00;101417.75;4992125;28;20057;-82
2023/12/19 04:01:07;;;;;;;5.88;4.65;;;;;;;6.97;100.00;101409.91;5006089;28;20053;-83
2023/12/19 04:03:33;;;;;;;5.57;4.80;;;;;;;6.96;100.00;101408.16;4992080;28;20525;-83
2023/12/19 04:06:00;;;;;;;6.07;5.47;;;;;;;6.97;100.00;101401.25;5010819;28;20047;-83
2023/12/19 04:08:26;;;;;;;7.80;6.47;;;;;;;7.02;100.00;101391.78;4997334;28;20410;-82
2023/12/19 04:10:53;;;;;;;6.88;5.45;;;;;;;6.95;100.00;101388.19;4993259;28;20088;-81
2023/12/19 04:13:19;;;;;;;6.63;5.63;;;;;;;6.99;100.00;101381.28;5009277;28;20050;-83
2023/12/19 04:15:46;;;;;;;5.55;5.05;;;;;;;6.95;100.00;101383.84;5010487;28;20388;-83
2023/12/19 04:18:14;;;;;;;6.70;5.70;;;;;;;7.01;100.00;101385.69;5005924;28;20434;-84
2023/12/19 04:20:42;;;;;;;7.00;6.03;;;;;;;7.00;100.00;101377.84;4991263;28;20049;-82
2023/12/19 04:23:10;;;;;;;8.48;6.15;;;;;;;6.95;100.00;101368.25;5009612;28;20041;-82
2023/12/19 04:25:37;;;;;;;6.20;5.60;;;;;;;6.90;100.00;101380.28;5007538;28;20088;-84
2023/12/19 04:28:04;;;;;;;7.13;6.00;;;;;;;6.84;100.00;101384.53;5007598;28;20048;-83
2023/12/19 04:30:30;;;;;;;10.48;6.95;;;;;;;6.81;100.00;101374.06;4989602;28;20041;-84
2023/12/19 04:32:57;;;;;;;7.53;6.10;;;;;;;6.82;100.00;101370.59;5009301;28;20073;-82
2023/12/19 04:35:23;;;;;;;8.27;6.78;;;;;;;6.82;100.00;101374.09;5005524;28;20411;-85
2023/12/19 04:37:50;;;;;;;10.13;6.50;;;;;;;6.80;100.00;101367.97;5004419;28;20124;-83
2023/12/19 04:40:17;;;;;;;10.80;7.30;;;;;;;6.82;100.00;101371.47;5017787;28;20049;-83
2023/12/19 04:42:43;;;;;;;7.93;6.60;;;;;;;6.78;100.00;101367.94;4999138;28;20050;-82
2023/12/19 04:45:10;;;;;;;7.88;7.07;;;;;;;6.78;100.00;101367.06;4988819;28;20572;-82
2023/12/19 04:47:37;;;;;;;10.88;7.72;;;;;;;6.74;100.00;101354.84;5005193;28;20050;-83
2023/12/19 04:50:04;;;;;;;9.55;7.28;;;;;;;6.76;100.00;101346.22;5007018;28;20045;-83
2023/12/19 04:52:30;;;;;;;9.25;7.40;;;;;;;6.78;100.00;101347.13;4992323;28;20054;-82
2023/12/19 04:54:57;;;;;;;7.60;6.90;;;;;;;6.75;100.00;101343.59;4996637;28;20073;-83
2023/12/19 04:57:24;;;;;;;8.25;6.47;;;;;;;6.77;100.00;101344.50;4990338;28;20050;-83
2023/12/19 04:59:53;;;;;;;8.38;6.07;;;;;;;6.75;100.00;101349.69;5003902;28;20046;-83
2023/12/19 05:02:20;;;;;;;7.50;5.80;;;;;;;6.75;100.00;101349.69;5006798;28;20718;-83
2023/12/19 05:04:47;;;;;;;8.98;6.43;;;;;;;6.82;100.00;101355.88;5007530;28;20048;-82
2023/12/19 05:07:13;;;;;;;9.90;6.00;;;;;;;6.79;100.00;101356.69;5010414;28;20041;-82
2023/12/19 05:09:39;;;;;;;6.22;5.55;;;;;;;6.74;100.00;101341.81;5005613;28;20049;-83
2023/12/19 05:12:05;;;;;;;6.22;4.55;;;;;;;6.73;100.00;101342.69;5010411;28;20084;-84
2023/12/19 05:14:34;;;;;;;7.28;5.55;;;;;;;6.74;100.00;101332.31;4992368;28;20092;-83
2023/12/19 05:17:03;;;;;;;6.40;5.47;;;;;;;6.75;100.00;101336.69;5008980;28;20686;-83
2023/12/19 05:19:30;;;;;;;5.55;5.05;;;;;;;6.75;100.00;101336.69;5003690;28;20053;-83
2023/12/19 05:21:59;;;;;;;5.13;4.63;;;;;;;6.71;100.00;101337.44;4993927;28;20104;-83
2023/12/19 05:24:27;;;;;;;4.60;4.20;;;;;;;6.73;100.00;101340.97;5006025;28;20506;-82
2023/12/19 05:26:59;;;;;;;5.32;4.75;;;;;;;6.73;100.00;101338.34;5006262;28;20045;-83
2023/12/19 05:29:25;;;;;;;4.53;4.03;;;;;;;6.67;100.00;101329.56;5005370;28;20022;-84
2023/12/19 05:31:52;;;;;;;6.07;3.85;;;;;;;6.67;100.00;101326.97;4991020;28;20739;-83
2023/12/19 05:34:18;;;;;;;5.20;3.97;;;;;;;6.68;100.00;101313.97;5005766;28;20048;-82
2023/12/19 05:36:46;;;;;;;4.00;3.67;;;;;;;6.74;100.00;101313.19;4993825;28;20045;-84
2023/12/19 05:39:13;;;;;;;5.38;4.18;;;;;;;6.73;100.00;101294.13;5005226;28;20060;-83
2023/12/19 05:41:40;;;;;;;4.22;3.92;;;;;;;6.80;100.00;101282.09;5005740;28;20050;-83
2023/12/19 05:44:12;;;;;;;3.72;3.42;;;;;;;6.83;100.00;101271.75;4983583;28;20049;-83
2023/12/19 05:46:39;;;;;;;4.95;3.58;;;;;;;6.89;100.00;101257.94;4997587;28;20046;-84
2023/12/19 05:49:07;;;;;;;2.80;2.60;;;;;;;6.92;100.00;101258.00;5002435;28;20124;-84
2023/12/19 05:51:33;;;;;;;3.13;2.92;;;;;;;6.92;100.00;101263.19;5000093;28;20152;-84
2023/12/19 05:54:00;;;;;;;3.83;3.28;;;;;;;6.91;100.00;101259.72;5002710;28;20111;-83
2023/12/19 05:56:27;;;;;;;2.97;2.72;;;;;;;6.91;100.00;101257.13;5002733;28;20041;-83
2023/12/19 05:58:53;;;;;;;3.25;2.85;;;;;;;6.93;100.00;101251.94;4982726;28;20050;-82
2023/12/19 06:01:21;;;;;;;4.15;2.65;;;;;;;6.86;100.00;101265.72;4988818;28;20545;-84
2023/12/19 06:03:48;;;;;;;4.10;2.55;;;;;;;6.92;100.00;101255.38;4989488;28;20053;-83
2023/12/19 06:06:15;;;;;;;3.03;2.83;;;;;;;6.90;100.00;101257.97;4992536;28;20046;-85
2023/12/19 06:08:43;;;;;;;4.70;2.63;;;;;;;6.89;100.00;101258.81;4986975;28;20487;-84
2023/12/19 06:11:11;;;;;;;3.30;2.85;;;;;;;6.85;100.00;101262.22;5005804;28;20049;-83
2023/12/19 06:13:38;;;;;;;4.45;2.80;;;;;;;6.87;100.00;101263.13;4990632;28;20053;-83
2023/12/19 06:16:06;;;;;;;2.85;2.40;;;;;;;6.89;100.00;101253.59;5004675;28;20041;-84
2023/12/19 06:18:33;;;;;;;3.97;3.08;;;;;;;6.87;100.00;101257.03;5001952;28;20185;-83
2023/12/19 06:21:00;;;;;;;2.60;2.40;;;;;;;6.91;100.00;101254.53;4989226;28;20247;-83
2023/12/19 06:23:30;;;;;;;3.53;3.22;;;;;;;6.91;100.00;101258.84;4988173;28;20046;-83
2023/12/19 06:25:57;;;;;;;3.53;2.67;;;;;;;6.92;100.00;101258.88;4992324;28;20042;-83
2023/12/19 06:28:23;;;;;;;3.28;2.97;;;;;;;6.98;100.00;101257.22;4987059;28;20100;-82
2023/12/19 06:30:50;;;;;;;3.33;3.03;;;;;;;6.99;100.00;101245.94;4977785;28;20527;-83
2023/12/19 06:33:17;;;;;;;3.70;2.95;;;;;;;6.90;100.00;101250.16;4990568;28;20041;-83
2023/12/19 06:35:46;;;;;;;3.10;2.83;;;;;;;6.92;100.00;101234.56;5004368;28;20050;-84
2023/12/19 06:38:12;;;;;;;4.22;3.80;;;;;;;6.88;100.00;101249.28;4972537;28;20046;-82
2023/12/19 06:40:38;;;;;;;5.05;3.85;;;;;;;6.87;100.00;101249.22;4994507;28;20046;-83
2023/12/19 06:43:05;;;;;;;4.30;4.00;;;;;;;6.87;100.00;101249.22;4998806;28;20053;-84
2023/12/19 06:45:33;;;;;;;3.92;3.30;;;;;;;6.81;100.00;101244.81;4989749;28;20100;-84
2023/12/19 06:48:03;;;;;;;4.07;3.70;;;;;;;6.78;100.00;101257.78;5002630;28;20068;-83
2023/12/19 06:50:29;;;;;;;3.95;3.58;;;;;;;6.77;100.00;101264.69;4995932;28;20057;-83
2023/12/19 06:52:57;;;;;;;4.22;3.83;;;;;;;6.78;100.00;101271.66;4989400;28;20058;-81
2023/12/19 06:55:25;;;;;;;6.55;3.70;;;;;;;6.79;100.00;101268.22;4973182;28;20164;-82
2023/12/19 06:57:52;;;;;;;3.75;3.42;;;;;;;6.78;100.00;101265.59;5002443;28;20050;-84
2023/12/19 07:00:19;;;;;;;5.07;4.57;;;;;;;6.79;100.00;101263.00;4985422;28;20438;-82
2023/12/19 07:02:46;;;;;;;4.45;3.90;;;;;;;6.78;100.00;101263.00;4983790;28;20144;-84
2023/12/19 07:05:12;;;;;;;4.90;4.38;;;;;;;6.76;100.00;101257.72;4983065;28;20053;-85
2023/12/19 07:07:39;;;;;;;5.15;4.63;;;;;;;6.70;100.00;101267.16;4987786;28;20084;-85
2023/12/19 07:10:07;;;;;;;6.85;4.65;;;;;;;6.67;100.00;101259.31;4971568;28;20057;-81
2023/12/19 07:12:34;;;;;;;6.30;4.07;;;;;;;6.65;100.00;101255.81;4984115;28;20092;-84
2023/12/19 07:15:04;;;;;;;4.90;4.43;;;;;;;6.54;100.00;101253.91;4995717;28;20050;-85
2023/12/19 07:17:31;;;;;;;5.25;4.35;;;;;;;6.55;100.00;101266.06;4982445;28;20104;-82
2023/12/19 07:19:57;;;;;;;6.28;5.18;;;;;;;6.53;100.00;101259.97;4987486;28;20215;-84
2023/12/19 07:22:24;;;;;;;7.28;5.15;;;;;;;6.39;100.00;101264.06;4975460;28;20042;-85
2023/12/19 07:24:51;;;;;;;5.32;4.13;;;;;;;6.38;100.00;101259.69;4987474;28;20061;-84
2023/12/19 07:27:17;;;;;;;5.60;4.38;;;;;;;6.31;100.00;101256.13;4972449;28;20050;-83
2023/12/19 07:29:44;;;;;;;5.68;4.30;;;;;;;6.29;100.00;101263.00;4967370;28;20082;-83
2023/12/19 07:32:11;;;;;;;4.97;4.38;;;;;;;6.32;100.00;101251.78;4984888;28;20054;-84
2023/12/19 07:34:37;;;;;;;5.65;4.50;;;;;;;6.32;100.00;101252.63;4972913;28;20045;-83
2023/12/19 07:37:04;;;;;;;6.20;4.60;;;;;;;6.33;100.00;101249.19;4982850;28;20723;-82
2023/12/19 07:39:31;;;;;;;3.83;3.53;;;;;;;6.25;100.00;101251.66;4988801;28;20524;-85
2023/12/19 07:41:57;;;;;;;4.65;3.97;;;;;;;6.26;100.00;101248.22;4970968;28;20092;-84
2023/12/19 07:44:25;;;;;;;4.18;3.78;;;;;;;6.24;100.00;101246.44;4968125;28;20038;-83
2023/12/19 07:46:52;;;;;;;4.57;3.70;;;;;;;6.29;100.00;101242.19;4972737;28;20061;-84
2023/12/19 07:49:19;;;;;;;4.07;3.65;;;;;;;6.32;100.00;101251.78;4983457;28;20141;-84
2023/12/19 07:51:45;;;;;;;6.35;3.75;;;;;;;6.30;100.00;101236.16;4985620;28;20112;-85
2023/12/19 07:54:12;;;;;;;4.28;3.88;;;;;;;6.27;100.00;101236.97;4984977;28;20054;-84
2023/12/19 07:56:43;;;;;;;3.78;3.05;;;;;;;6.26;100.00;101235.22;4980126;28;20050;-83
2023/12/19 07:59:10;;;;;;;4.55;3.35;;;;;;;6.30;100.00;101230.97;4981350;28;20176;-84
2023/12/19 08:01:37;;;;;;;3.45;3.15;;;;;;;6.35;100.00;101226.72;5006234;28;20521;-85
2023/12/19 08:04:04;;;;;;;2.67;2.47;;;;;;;6.34;100.00;101218.88;4995336;28;20050;-86
2023/12/19 08:06:30;;;;;;;3.28;2.92;;;;;;;6.39;100.00;101214.66;5004203;28;20052;-83
2023/12/19 08:08:57;;;;;;;3.15;2.85;;;;;;;6.45;100.00;101214.72;4991893;28;20057;-85
2023/12/19 08:11:24;;;;;;;2.38;2.17;;;;;;;6.49;100.00;101208.72;4983543;28;20057;-84
2023/12/19 08:13:52;;;;;;;1.73;1.55;;;;;;;6.41;100.00;101207.72;5004335;28;20083;-85
2023/12/19 08:16:19;;;;;;;1.30;1.20;;;;;;;6.43;100.00;101199.09;5000139;28;20049;-85
2023/12/19 08:18:49;;;;;;;2.40;2.20;;;;;;;6.47;100.00;101181.84;4991369;28;20054;-83
2023/12/19 08:21:15;;;;;;;1.02;0.90;;;;;;;6.44;100.00;101174.84;5007449;28;20064;-84
2023/12/19 08:23:42;;;;;;;1.33;0.90;;;;;;;6.47;100.00;101174.03;5002334;28;20046;-84
2023/12/19 08:26:10;;;;;;;2.85;1.10;;;;;;;6.52;100.00;101169.78;5021780;28;20049;-85
2023/12/19 08:28:37;;;;;;;0.95;0.95;;;;;;;6.57;100.00;101175.94;4986154;28;20136;-85
2023/12/19 08:31:04;;;;;;;1.42;1.10;;;;;;;6.62;100.00;101168.19;5022014;28;20449;-84
2023/12/19 08:33:34;;;;;;;0.73;0.73;;;;;;;6.59;100.00;101160.34;5010783;28;20114;-83
2023/12/19 08:36:00;;;;;;;0.77;0.75;;;;;;;6.63;100.00;101172.53;5027172;28;20069;-83
2023/12/19 08:38:27;;;;;;;0.50;0.50;;;;;;;6.65;100.00;101172.56;5024598;28;20057;-83
2023/12/19 08:40:54;;;;;;;1.58;0.77;;;;;;;6.66;100.00;101164.78;4989642;28;20053;-83
2023/12/19 08:43:20;;;;;;;0.85;0.85;;;;;;;6.73;100.00;101163.16;4992685;28;20065;-85
2023/12/19 08:45:49;;;;;;;2.30;1.08;;;;;;;6.70;100.00;101155.28;5023698;28;20048;-84
2023/12/19 08:48:17;;;;;;;0.68;0.68;;;;;;;6.69;100.00;101156.13;5013956;28;20078;-83
2023/12/19 08:50:44;;;;;;;0.70;0.70;;;;;;;6.74;100.00;101157.09;5021605;28;20057;-84
2023/12/19 08:53:12;;;;;;;0.60;0.60;;;;;;;6.74;100.00;101157.09;5015260;28;20050;-84
2023/12/19 08:55:42;;;;;;;0.57;0.55;;;;;;;6.71;100.00;101151.84;5015918;28;20494;-83
2023/12/19 08:58:08;;;;;;;0.55;0.52;;;;;;;6.71;100.00;101144.91;4998014;28;20629;-83
2023/12/19 09:00:35;;;;;;;0.70;0.70;;;;;;;6.72;100.00;101138.00;4967084;28;20101;-84
2023/12/19 09:03:05;;;;;;;0.70;0.52;;;;;;;6.73;100.00;101140.59;4993514;28;20499;-84
2023/12/19 09:05:32;;;;;;;1.02;0.93;;;;;;;6.78;100.00;101138.94;5002800;28;20053;-84
2023/12/19 09:07:59;;;;;;;0.70;0.70;;;;;;;6.77;100.00;101146.75;4988880;28;20864;-84
2023/12/19 09:10:25;;;;;;;3.53;1.83;;;;;;;6.72;100.00;101144.06;4979673;28;20072;-86
2023/12/19 09:12:52;;;;;;;1.20;0.98;;;;;;;6.71;100.00;101141.44;4973609;28;20329;-84
2023/12/19 09:15:19;;;;;;;0.70;0.70;;;;;;;6.64;100.00;101132.66;4970956;28;20054;-83
2023/12/19 09:17:45;;;;;;;1.58;1.05;;;;;;;6.68;100.00;101133.59;4998443;28;20117;-83
2023/12/19 09:20:12;;;;;;;2.75;1.40;;;;;;;6.71;100.00;101129.28;4985263;28;20049;-82
2023/12/19 09:22:38;;;;;;;0.85;0.85;;;;;;;6.67;100.00;101126.63;4989865;28;20053;-85
2023/12/19 09:25:13;;;;;;;1.33;1.23;;;;;;;6.67;100.00;101124.91;4970737;28;20133;-85
2023/12/19 09:27:41;;;;;;;0.80;0.80;;;;;;;6.66;100.00;101124.88;5000172;28;20839;-84
2023/12/19 09:30:09;;;;;;;1.10;1.05;;;;;;;6.66;100.00;101117.09;4977522;28;20192;-82
2023/12/19 09:32:39;;;;;;;1.00;1.00;;;;;;;6.74;100.00;101116.34;4974245;28;20050;-83
2023/12/19 09:35:07;;;;;;;2.55;1.45;;;;;;;6.71;100.00;101118.03;4985411;28;20140;-84
2023/12/19 09:37:36;;;;;;;1.38;1.27;;;;;;;6.69;100.00;101110.19;5000911;28;20478;-85
2023/12/19 09:40:03;;;;;;;1.23;1.13;;;;;;;6.68;100.00;101112.78;4974221;28;20728;-86
2023/12/19 09:42:31;;;;;;;1.67;1.58;;;;;;;6.61;100.00;101110.09;4984143;28;20050;-83
2023/12/19 09:44:59;;;;;;;1.52;1.40;;;;;;;6.64;100.00;101109.25;4988896;28;20037;-84
2023/12/19 09:47:26;;;;;;;2.78;1.48;;;;;;;6.66;100.00;101114.47;4986394;28;20077;-84
2023/12/19 09:49:59;;;;;;;3.00;1.27;;;;;;;6.67;100.00;101108.44;4972782;28;20161;-82
2023/12/19 09:52:26;;;;;;;2.60;1.30;;;;;;;6.67;100.00;101101.50;4999232;28;20046;-83
2023/12/19 09:54:55;;;;;;;4.18;1.77;;;;;;;6.67;100.00;101104.09;4986161;28;20956;-83
2023/12/19 09:57:23;;;;;;;2.30;1.98;;;;;;;6.75;100.00;101099.00;4979582;28;20596;-84
2023/12/19 09:59:52;;;;;;;1.60;1.50;;;;;;;6.72;100.00;101101.56;4970387;28;20050;-84
2023/12/19 10:02:19;;;;;;;1.95;1.67;;;;;;;6.77;100.00;101092.97;4972958;28;20050;-84
2023/12/19 10:04:47;;;;;;;1.13;1.02;;;;;;;6.71;100.00;101085.06;4985490;28;20046;-85
2023/12/19 10:07:14;;;;;;;1.15;0.80;;;;;;;6.77;100.00;101079.94;4968704;28;20072;-85
2023/12/19 10:09:55;;;;;;;0.90;0.90;;;;;;;6.79;100.00;101066.94;4984854;28;20057;-84
2023/12/19 10:12:27;;;;;;;2.50;0.90;;;;;;;6.87;100.00;101064.44;4988580;28;20563;-84
2023/12/19 10:15:15;;;;;;;0.93;0.90;;;;;;;6.89;100.00;101052.34;4988457;28;21194;-83
2023/12/19 10:18:03;;;;;;;1.00;0.95;;;;;;;6.84;100.00;101049.69;5006075;28;20050;-85
2023/12/19 10:20:30;;;;;;;1.10;1.10;;;;;;;6.92;100.00;101050.66;4982524;28;20042;-85
2023/12/19 10:23:04;;;;;;;1.20;1.10;;;;;;;6.85;100.00;101051.44;4988914;28;20052;-84
2023/12/19 10:25:32;;;;;;;1.38;1.15;;;;;;;6.85;100.00;101034.97;4975042;28;20056;-84
2023/12/19 10:28:08;;;;;;;1.05;0.85;;;;;;;6.89;100.00;101034.13;4986675;28;20050;-83
2023/12/19 10:30:38;;;;;;;2.20;1.90;;;;;;;6.90;100.00;101025.47;4994780;28;20060;-81
2023/12/19 10:33:07;;;;;;;0.77;0.77;;;;;;;6.84;100.00;101018.44;4990220;28;20466;-83
2023/12/19 10:35:41;;;;;;;3.67;0.98;;;;;;;6.89;100.00;101008.09;4966722;28;20583;-83
2023/12/19 10:38:12;;;;;;;1.58;0.88;;;;;;;6.92;100.00;101006.41;4996120;28;20031;-85
2023/12/19 10:40:41;;;;;;;;;;;;;;;6.92;100.00;101005.53;4987015;28;20043;-83
2023/12/19 10:43:08;;;;;;;0.50;0.50;;;;;;;6.94;100.00;100996.88;4979951;28;19960;-83
2023/12/19 10:45:38;;;;;;;0.88;0.88;;;;;;;6.98;100.00;100995.19;4989728;28;20069;-84
2023/12/19 10:48:06;;;;;;;0.60;0.60;;;;;;;7.03;100.00;100987.44;4979058;28;20042;-83
2023/12/19 10:50:32;;;;;;;1.90;1.70;;;;;;;7.07;100.00;100986.63;4995642;28;20539;-84
2023/12/19 10:53:03;;;;;;;1.58;1.23;;;;;;;7.12;100.00;100978.00;4980244;28;20045;-85
2023/12/19 10:55:39;;;;;;;1.55;1.27;;;;;;;7.18;100.00;100981.53;4978283;28;20061;-84
2023/12/19 10:58:06;;;;;;;1.20;1.10;;;;;;;7.21;100.00;100966.81;4974796;28;20034;-83
2023/12/19 11:00:37;;;;;;;1.58;1.48;;;;;;;7.26;100.00;100965.13;4975578;28;20090;-84
2023/12/19 11:03:19;;;;;;;1.85;1.35;;;;;;;7.29;100.00;100954.72;4983325;28;20070;-84
2023/12/19 11:05:47;;;;;;;1.20;1.10;;;;;;;7.29;100.00;100946.91;4993312;28;20061;-81
2023/12/19 11:08:19;;;;;;;2.28;1.70;;;;;;;7.33;100.00;100959.97;4994766;28;20034;-84
2023/12/19 11:11:14;;;;;;;1.40;1.27;;;;;;;7.33;100.00;100952.16;5011799;28;20544;-84
2023/12/19 11:13:47;;;;;;;1.60;1.50;;;;;;;7.31;100.00;100949.53;4981354;28;20099;-83
2023/12/19 11:16:24;;;;;;;2.45;1.80;;;;;;;7.35;100.00;100956.50;4992418;28;20486;-83
2023/12/19 11:19:01;;;;;;;2.85;1.95;;;;;;;7.32;100.00;100950.41;4998998;28;20053;-84
2023/12/19 11:21:48;;;;;;;2.00;1.77;;;;;;;7.33;100.00;100947.81;4996330;28;20042;-84
2023/12/19 11:25:26;;;;;;;1.98;1.85;;;;;;;7.29;100.00;100938.25;4979383;28;20046;-83
2023/12/19 11:28:06;;;;;;;5.07;2.25;;;;;;;7.27;100.00;100938.22;4977340;28;20045;-82
2023/12/19 11:30:42;;;;;;;2.60;1.92;;;;;;;7.32;100.00;100935.66;5002202;28;20042;-83